Sjobris — SLXP — position and weather

sailwx.info

Track history (hours):
 
Tides and Currents Weather Stations Pressure Air Temp Water Temp Dewpoint Dewpoint Depression Visibility Wind Speed Wind Dir Waves Ship Positions

Sjobris

Last reported at 2015-Jul-30 16:24 UTC. Time now 2015-Jul-31 05:07 UTC.
Position N 59°19' E 018°07'.

Length 38 m.

Type: Passenger vessel. MMSI: 265522700.

Date/timePositionNaut miles runAvg speedWind from/ knotsBaromVisibWave heightAir tempDewpointWater temp
2015-Jul-30 16:24N 59°19' E 018°07'1 1.0
2015-Jul-30 15:33N 59°19' E 018°05'1 0.1
2015-Jul-30 06:29N 59°20' E 018°05'0 0.0
2015-Jul-30 05:33N 59°20' E 018°05'0 0.0
2015-Jul-30 04:33N 59°20' E 018°05'0 0.0
2015-Jul-30 03:33N 59°20' E 018°05'0 0.0
2015-Jul-30 02:33N 59°20' E 018°05'0 0.0
2015-Jul-30 01:33N 59°20' E 018°05'0 0.0
2015-Jul-30 00:33N 59°20' E 018°05'0 0.0
2015-Jul-29 23:33N 59°20' E 018°05'0 0.0
2015-Jul-29 22:33N 59°20' E 018°05'0 0.0
2015-Jul-29 21:33N 59°20' E 018°05'0 0.0
2015-Jul-29 20:33N 59°20' E 018°05'0 0.0
2015-Jul-29 19:25N 59°20' E 018°05'0 0.6
2015-Jul-29 18:32N 59°19' E 018°05'1 0.1
2015-Jul-29 08:11N 59°19' E 018°07'1 1.8
2015-Jul-29 07:33N 59°19' E 018°05'1 0.1
2015-Jul-28 16:25N 59°19' E 018°07'1 0.7
2015-Jul-28 15:33N 59°19' E 018°06'1 0.1
2015-Jul-28 06:33N 59°20' E 018°05'0 0.0
2015-Jul-28 05:33N 59°20' E 018°05'0 0.0
2015-Jul-28 04:33N 59°20' E 018°05'0 0.0
2015-Jul-28 03:33N 59°20' E 018°05'0 0.0
2015-Jul-28 02:33N 59°20' E 018°05'0 0.0
2015-Jul-28 01:33N 59°20' E 018°05'0 0.0
2015-Jul-28 00:33N 59°20' E 018°05'0 0.0
2015-Jul-27 23:33N 59°20' E 018°05'0 0.0
2015-Jul-27 22:33N 59°20' E 018°05'0 0.0
2015-Jul-27 21:33N 59°20' E 018°05'0 0.0
2015-Jul-27 20:34N 59°20' E 018°05'0 0.0
2015-Jul-27 19:33N 59°20' E 018°05'1 0.5
2015-Jul-27 18:30N 59°19' E 018°05'3 0.3
2015-Jul-27 08:20N 59°19' E 018°11'3 3.8
2015-Jul-27 07:33N 59°19' E 018°05'1 0.0
2015-Jul-26 18:33N 59°20' E 018°05'5 0.5
2015-Jul-26 07:16N 59°21' E 018°14'5 7.3
2015-Jul-26 06:33N 59°20' E 018°05'0 0.0
2015-Jul-26 05:33N 59°20' E 018°05'0 0.0
2015-Jul-26 04:33N 59°20' E 018°05'0 0.0
2015-Jul-26 03:33N 59°20' E 018°05'0 0.0
2015-Jul-26 02:33N 59°20' E 018°05'0 0.0
2015-Jul-26 01:33N 59°20' E 018°05'0 0.0
2015-Jul-26 00:33N 59°20' E 018°05'0 0.0
2015-Jul-25 23:33N 59°20' E 018°05'0 0.0
2015-Jul-25 22:33N 59°20' E 018°05'0 0.0
2015-Jul-25 21:33N 59°20' E 018°05'0 0.0
2015-Jul-25 20:34N 59°20' E 018°05'0 0.0
2015-Jul-25 19:33N 59°20' E 018°05'0 0.0
2015-Jul-25 18:33N 59°20' E 018°05'3 0.3
2015-Jul-25 07:04N 59°20' E 018°11'3 6.6
2015-Jul-25 06:33N 59°20' E 018°05'0 0.0
2015-Jul-25 05:33N 59°20' E 018°05'0 0.0
2015-Jul-25 04:33N 59°20' E 018°05'0 0.0
2015-Jul-25 03:33N 59°20' E 018°05'0 0.0
2015-Jul-25 02:33N 59°20' E 018°05'0 0.0
2015-Jul-25 01:33N 59°20' E 018°05'0 0.0
2015-Jul-25 00:33N 59°20' E 018°05'0 0.0
2015-Jul-24 23:33N 59°20' E 018°05'0 0.0
2015-Jul-24 22:33N 59°20' E 018°05'0 0.0
2015-Jul-24 21:33N 59°20' E 018°05'0 0.0
2015-Jul-24 20:34N 59°20' E 018°05'0 0.0
2015-Jul-24 19:33N 59°20' E 018°05'3 2.8
2015-Jul-24 18:26N 59°20' E 018°11'0 0.0
2015-Jul-24 08:21N 59°20' E 018°11'3 3.9
2015-Jul-24 07:32N 59°19' E 018°05'2 0.2
2015-Jul-23 16:31N 59°19' E 018°09'2 2.3
2015-Jul-23 15:33N 59°19' E 018°05'3 0.4
2015-Jul-23 07:04N 59°20' E 018°11'3 6.8
2015-Jul-23 06:33N 59°20' E 018°05'0 0.0
2015-Jul-23 05:33N 59°20' E 018°05'0 0.0
2015-Jul-23 04:33N 59°20' E 018°05'0 0.0
2015-Jul-23 03:33N 59°20' E 018°05'0 0.0
2015-Jul-23 02:33N 59°20' E 018°05'0 0.0
2015-Jul-23 01:33N 59°20' E 018°05'0 0.0
2015-Jul-23 00:33N 59°20' E 018°05'0 0.0
2015-Jul-22 23:33N 59°20' E 018°05'0 0.0
2015-Jul-22 22:33N 59°20' E 018°05'0 0.0
2015-Jul-22 21:33N 59°20' E 018°05'0 0.0
2015-Jul-22 20:33N 59°20' E 018°05'0 0.0
2015-Jul-22 19:33N 59°20' E 018°05'0 0.5
2015-Jul-22 18:29N 59°19' E 018°05'2 0.2
2015-Jul-22 08:19N 59°19' E 018°09'0 0.2
2015-Jul-22 07:29N 59°19' E 018°09'1 0.1
2015-Jul-21 16:27N 59°19' E 018°07'2 2.0
2015-Jul-21 15:28N 59°20' E 018°11'3 0.4
2015-Jul-21 06:33N 59°20' E 018°05'0 0.0
2015-Jul-21 05:33N 59°20' E 018°05'0 0.0
2015-Jul-21 04:33N 59°20' E 018°05'0 0.0
2015-Jul-21 03:33N 59°20' E 018°05'0 0.3
2015-Jul-21 02:33N 59°19' E 018°04'0 0.3
2015-Jul-21 01:33N 59°20' E 018°05'0 0.0
2015-Jul-21 00:33N 59°20' E 018°05'0 0.0
2015-Jul-20 23:33N 59°20' E 018°05'0 0.0
2015-Jul-20 22:33N 59°20' E 018°05'0 0.0
2015-Jul-20 21:33N 59°20' E 018°05'0 0.0
2015-Jul-20 20:33N 59°20' E 018°05'0 0.0
2015-Jul-20 19:33N 59°20' E 018°05'1 0.6
2015-Jul-20 18:33N 59°19' E 018°05'  
Track history (hours):
 
Tides and Currents Weather Stations Pressure Air Temp Water Temp Dewpoint Dewpoint Depression Visibility Wind Speed Wind Dir Waves Ship Positions

Sjobris

Last reported at 2015-Jul-30 16:24 UTC. Time now 2015-Jul-31 05:07 UTC.
Position N 59°19' E 018°07'.

Length 38 m.

Type: Passenger vessel. MMSI: 265522700.

Date/timePositionNaut miles runAvg speedWind from/ knotsBaromVisibWave heightAir tempDewpointWater temp
2015-Jul-30 16:24N 59°19' E 018°07'1 1.0
2015-Jul-30 15:33N 59°19' E 018°05'1 0.1
2015-Jul-30 06:29N 59°20' E 018°05'0 0.0
2015-Jul-30 05:33N 59°20' E 018°05'0 0.0
2015-Jul-30 04:33N 59°20' E 018°05'0 0.0
2015-Jul-30 03:33N 59°20' E 018°05'0 0.0
2015-Jul-30 02:33N 59°20' E 018°05'0 0.0
2015-Jul-30 01:33N 59°20' E 018°05'0 0.0
2015-Jul-30 00:33N 59°20' E 018°05'0 0.0
2015-Jul-29 23:33N 59°20' E 018°05'0 0.0
2015-Jul-29 22:33N 59°20' E 018°05'0 0.0
2015-Jul-29 21:33N 59°20' E 018°05'0 0.0
2015-Jul-29 20:33N 59°20' E 018°05'0 0.0
2015-Jul-29 19:25N 59°20' E 018°05'0 0.6
2015-Jul-29 18:32N 59°19' E 018°05'1 0.1
2015-Jul-29 08:11N 59°19' E 018°07'1 1.8
2015-Jul-29 07:33N 59°19' E 018°05'1 0.1
2015-Jul-28 16:25N 59°19' E 018°07'1 0.7
2015-Jul-28 15:33N 59°19' E 018°06'1 0.1
2015-Jul-28 06:33N 59°20' E 018°05'0 0.0
2015-Jul-28 05:33N 59°20' E 018°05'0 0.0
2015-Jul-28 04:33N 59°20' E 018°05'0 0.0
2015-Jul-28 03:33N 59°20' E 018°05'0 0.0
2015-Jul-28 02:33N 59°20' E 018°05'0 0.0
2015-Jul-28 01:33N 59°20' E 018°05'0 0.0
2015-Jul-28 00:33N 59°20' E 018°05'0 0.0
2015-Jul-27 23:33N 59°20' E 018°05'0 0.0
2015-Jul-27 22:33N 59°20' E 018°05'0 0.0
2015-Jul-27 21:33N 59°20' E 018°05'0 0.0
2015-Jul-27 20:34N 59°20' E 018°05'0 0.0
2015-Jul-27 19:33N 59°20' E 018°05'1 0.5
2015-Jul-27 18:30N 59°19' E 018°05'3 0.3
2015-Jul-27 08:20N 59°19' E 018°11'3 3.8
2015-Jul-27 07:33N 59°19' E 018°05'1 0.0
2015-Jul-26 18:33N 59°20' E 018°05'5 0.5
2015-Jul-26 07:16N 59°21' E 018°14'5 7.3
2015-Jul-26 06:33N 59°20' E 018°05'0 0.0
2015-Jul-26 05:33N 59°20' E 018°05'0 0.0
2015-Jul-26 04:33N 59°20' E 018°05'0 0.0
2015-Jul-26 03:33N 59°20' E 018°05'0 0.0
2015-Jul-26 02:33N 59°20' E 018°05'0 0.0
2015-Jul-26 01:33N 59°20' E 018°05'0 0.0
2015-Jul-26 00:33N 59°20' E 018°05'0 0.0
2015-Jul-25 23:33N 59°20' E 018°05'0 0.0
2015-Jul-25 22:33N 59°20' E 018°05'0 0.0
2015-Jul-25 21:33N 59°20' E 018°05'0 0.0
2015-Jul-25 20:34N 59°20' E 018°05'0 0.0
2015-Jul-25 19:33N 59°20' E 018°05'0 0.0
2015-Jul-25 18:33N 59°20' E 018°05'3 0.3
2015-Jul-25 07:04N 59°20' E 018°11'3 6.6
2015-Jul-25 06:33N 59°20' E 018°05'0 0.0
2015-Jul-25 05:33N 59°20' E 018°05'0 0.0
2015-Jul-25 04:33N 59°20' E 018°05'0 0.0
2015-Jul-25 03:33N 59°20' E 018°05'0 0.0
2015-Jul-25 02:33N 59°20' E 018°05'0 0.0
2015-Jul-25 01:33N 59°20' E 018°05'0 0.0
2015-Jul-25 00:33N 59°20' E 018°05'0 0.0
2015-Jul-24 23:33N 59°20' E 018°05'0 0.0
2015-Jul-24 22:33N 59°20' E 018°05'0 0.0
2015-Jul-24 21:33N 59°20' E 018°05'0 0.0
2015-Jul-24 20:34N 59°20' E 018°05'0 0.0
2015-Jul-24 19:33N 59°20' E 018°05'3 2.8
2015-Jul-24 18:26N 59°20' E 018°11'0 0.0
2015-Jul-24 08:21N 59°20' E 018°11'3 3.9
2015-Jul-24 07:32N 59°19' E 018°05'2 0.2
2015-Jul-23 16:31N 59°19' E 018°09'2 2.3
2015-Jul-23 15:33N 59°19' E 018°05'3 0.4
2015-Jul-23 07:04N 59°20' E 018°11'3 6.8
2015-Jul-23 06:33N 59°20' E 018°05'0 0.0
2015-Jul-23 05:33N 59°20' E 018°05'0 0.0
2015-Jul-23 04:33N 59°20' E 018°05'0 0.0
2015-Jul-23 03:33N 59°20' E 018°05'0 0.0
2015-Jul-23 02:33N 59°20' E 018°05'0 0.0
2015-Jul-23 01:33N 59°20' E 018°05'0 0.0
2015-Jul-23 00:33N 59°20' E 018°05'0 0.0
2015-Jul-22 23:33N 59°20' E 018°05'0 0.0
2015-Jul-22 22:33N 59°20' E 018°05'0 0.0
2015-Jul-22 21:33N 59°20' E 018°05'0 0.0
2015-Jul-22 20:33N 59°20' E 018°05'0 0.0
2015-Jul-22 19:33N 59°20' E 018°05'0 0.5
2015-Jul-22 18:29N 59°19' E 018°05'2 0.2
2015-Jul-22 08:19N 59°19' E 018°09'0 0.2
2015-Jul-22 07:29N 59°19' E 018°09'1 0.1
2015-Jul-21 16:27N 59°19' E 018°07'2 2.0
2015-Jul-21 15:28N 59°20' E 018°11'3 0.4
2015-Jul-21 06:33N 59°20' E 018°05'0 0.0
2015-Jul-21 05:33N 59°20' E 018°05'0 0.0
2015-Jul-21 04:33N 59°20' E 018°05'0 0.0
2015-Jul-21 03:33N 59°20' E 018°05'0 0.3
2015-Jul-21 02:33N 59°19' E 018°04'0 0.3
2015-Jul-21 01:33N 59°20' E 018°05'0 0.0
2015-Jul-21 00:33N 59°20' E 018°05'0 0.0
2015-Jul-20 23:33N 59°20' E 018°05'0 0.0
2015-Jul-20 22:33N 59°20' E 018°05'0 0.0
2015-Jul-20 21:33N 59°20' E 018°05'0 0.0
2015-Jul-20 20:33N 59°20' E 018°05'0 0.0
2015-Jul-20 19:33N 59°20' E 018°05'1 0.6
2015-Jul-20 18:33N 59°19' E 018°05'  

Dump ship's entire track history